Portsmouth Intl At Pease Information

FAA: PSM - ICAO: KPSM

Portsmouth Intl At Pease (Airport) Location

State New Hampshire
County Rockingham
City Portsmouth
Portsmouth Intl At Pease (Airport) is 1 mile west of Portsmouth, NH.
Latitude 43-04-40.6000N
Longitude 070-49-23.8000W
Elevation 100ft

Portsmouth Intl At Pease METARs

METAR KPSM 170319Z 15006KT 10SM SCT005 OVC016 15/15 A2954 RMK AO2A SLP006
Altimeter 29.54"
Temperature 15.0°C (59.0°F)
Wind 150° at 6KT
Clouds scattered at 500ft overcast at 1,600ft
Visibility 10.0mi
Time observed: 2022-05-17T03:19:00Z

Portsmouth Intl At Pease (Airport) Details

Status Operational
Activation January 1946
Ownership Public
Usage Public
Chart NEW YORK
ATC on-site Yes
Beacon schedule sunset-sunrise
Beacon color clear green

Portsmouth Intl At Pease (Airport) Contacts

Owner PEASE DEVELOPMENT AUTHORITY
Owner address 55 INTERNATIONAL DRIVE, PORTSMOUTH, NH 03801
Owner phone 603-433-6536
Manager CHARLES THERRIAULT, JR
Manager address 266 HARMONY RD, NORTHWOOD, NH 03261
Manager phone 603-942-7077

Portsmouth Intl At Pease Radio Frequencies

Portsmouth Intl At Pease (Airport) Radio Frequencies

UNICOM 122.95
Common traffic advisory frequency (CTAF) N/A